• Join FlightAware (Why Join?)
  • Login
  • US Flag 
04:47AM EDT


 

Airport Tracker/Info


-or-


 

Live Flight TrackerFlight Track Log ✈ UPS1337 ✈ 14-Jun-2014 ✈ KRDU - KSDF

Flight Track Log - Related Links

Times and Time Zones

All times are in EDT time to prevent confusion due to time zone crossing. See the UPS1337 flight status page for this flight to view local times or setup timezone preferences in your user account.

Time Position Orientation Groundspeed Altitude Reporting Facility
EDT Latitude Longitude Course Direction KTS MPH feet Rate Location/Type
12:01AM 35.8708 -78.8114 266° West 163 188 1,600  Level Washington Center
12:02AM 35.8669 -78.8753 266° West 162 186 4,200 2,160 Climbing Washington Center
12:03AM 35.8625 -78.9572 266° West 200 230 6,400 2,820 Climbing Washington Center
12:04AM 35.8536 -79.0542 264° West 250 288 10,000 2,460 Climbing Washington Center
12:11AM 35.7823 -79.9382 291° West 456 525 25,000 2,220 Climbing FlightAware ADS-B (KINT)
12:11AM 35.8130 -80.0319 292° West 467 537 26,000 1,380 Climbing FlightAware ADS-B (KINT)
12:12AM 35.8437 -80.1264 292° West 474 545 27,000 1,800 Climbing FlightAware ADS-B (KINT)
12:13AM 35.8814 -80.2446 291° West 469 540 28,500 2,160 Climbing FlightAware ADS-B (KINT)
12:13AM 35.9118 -80.3402 291° West 464 534 29,900 1,920 Climbing FlightAware ADS-B (KINT)
12:14AM 35.9379 -80.4226 291° West 462 532 31,100 1,560 Climbing FlightAware ADS-B (KINT)
12:15AM 35.9737 -80.5360 291° West 461 531 32,000 660 Climbing FlightAware ADS-B (KINT)
12:15AM 36.0035 -80.6314 291° West 457 526 32,000  Level FlightAware ADS-B (KINT)
12:16AM 36.0345 -80.7301 291° West 455 524 32,000  Level FlightAware ADS-B (KINT)
12:17AM 36.0649 -80.8275 291° West 452 520 32,000  Level FlightAware ADS-B (KINT)
12:17AM 36.0869 -80.8978 291° West 454 522 32,000  Level FlightAware ADS-B (KINT)
12:18AM 36.1244 -81.0184 291° West 454 522 32,000  Level FlightAware ADS-B (KINT)
12:19AM 36.1543 -81.1147 291° West 452 520 32,000  Level FlightAware ADS-B (KINT)
12:19AM 36.1731 -81.1756 291° West 454 522 32,000  Level Indianapolis Center
12:20AM 36.2175 -81.3200 291° West 451 519 32,000  Level Indianapolis Center
12:21AM 36.2686 -81.4867 291° West 446 513 32,000  Level Indianapolis Center
12:22AM 36.3119 -81.6297 291° West 445 512 32,000  Level Indianapolis Center
12:23AM 36.3561 -81.7756 291° West 450 518 32,000  Level Indianapolis Center
12:24AM 36.4011 -81.9242 291° West 456 525 32,000  Level Indianapolis Center
12:25AM 36.4453 -82.0717 290° West 456 525 32,000  Level Indianapolis Center
12:26AM 36.4892 -82.2186 290° West 454 522 32,000  Level Indianapolis Center
12:27AM 36.5325 -82.3650 290° West 453 521 32,000  Level Indianapolis Center
12:28AM 36.5758 -82.5114 290° West 451 519 32,000  Level Indianapolis Center
12:29AM 36.6186 -82.6569 290° West 450 518 32,000  Level Indianapolis Center
12:30AM 36.6614 -82.8033 290° West 448 516 32,000  Level Indianapolis Center
12:31AM 36.7147 -82.9431 295° West 445 512 32,000  Level Indianapolis Center
12:32AM 36.7789 -83.0767 301° West 444 511 32,000  Level Indianapolis Center
12:33AM 36.8428 -83.2100 301° West 443 510 32,000  Level Indianapolis Center
12:34AM 36.9061 -83.3428 301° West 443 510 32,000  Level Indianapolis Center
12:35AM 36.9686 -83.4742 301° West 439 505 32,000  Level Indianapolis Center
12:36AM 37.0297 -83.6036 301° West 436 502 32,000  Level Indianapolis Center
12:38AM 37.0908 -83.7333 301° West 434 499 32,000  Level Indianapolis Center
12:39AM 37.1525 -83.8642 301° West 434 499 32,000 -900 Level Indianapolis Center
12:40AM 37.2142 -83.9967 300° West 440 506 30,300 -2,340 Descending Indianapolis Center
12:41AM 37.2775 -84.1319 301° West 446 513 27,300 -3,000 Descending Indianapolis Center
12:42AM 37.3408 -84.2678 300° West 448 516 24,300 -2,460 Descending Indianapolis Center
12:48AM 37.6940 -85.0078 313° West 374 430 10,100 -2,040 Descending FlightAware ADS-B (KBRY)
12:49AM 37.7598 -85.1012 303° West 327 376 9,900 -480 Descending FlightAware ADS-B (KBRY)
12:50AM 37.7967 -85.1948 296° West 289 333 9,200 -1,140 Descending FlightAware ADS-B (KBRY)
12:51AM 37.8186 -85.2894 275° West 280 322 7,700 -1,500 Descending FlightAware ADS-B (KBRY)
12:52AM 37.8248 -85.3862 274° West 276 318 6,200 -1,560 Descending FlightAware ADS-B (KBRY)
12:53AM 37.8301 -85.4811 274° West 275 316 4,600 -1,380 Descending FlightAware ADS-B (KBRY)
12:54AM 37.8356 -85.5761 282° West 256 295 3,500 -900 Descending FlightAware ADS-B (KBRY)
12:55AM 37.8857 -85.6257 341° North 216 249 2,900 -300 Descending FlightAware ADS-B (KBRY)
12:56AM 37.9527 -85.6536 349° North 200 230 2,900  Level FlightAware ADS-B (KBRY)
12:57AM 38.0179 -85.6730 342° North 199 229 2,900 -300 Level FlightAware ADS-B (KBRY)
12:58AM 38.0691 -85.6913 346° North 181 208 2,300 -780 Descending FlightAware ADS-B (KBRY)
12:59AM 38.1096 -85.7049 345° North 139 160 1,400 -780 Descending FlightAware ADS-B (KBRY)
01:00AM 38.1365 -85.7140 345° North 118 136 900 -180 Descending FlightAware ADS-B (KBRY)
01:01AM 38.1653 -85.7228 345° North 170 196 1,200 360 Climbing Indianapolis Center